createdAt,value
2018-07-13T00:01:40.481Z,16.97
2018-07-13T00:04:08.906Z,18.97
2018-07-13T00:06:37.355Z,15.70
2018-07-13T00:09:10.744Z,17.10
2018-07-13T00:11:39.576Z,18.73
2018-07-13T00:14:26.075Z,17.47
2018-07-13T00:16:56.691Z,18.27
2018-07-13T00:19:25.654Z,15.60
2018-07-13T00:21:53.817Z,16.20
2018-07-13T00:24:22.252Z,15.70
2018-07-13T00:26:51.282Z,16.50
2018-07-13T00:29:19.723Z,16.13
2018-07-13T00:31:48.148Z,18.93
2018-07-13T00:34:16.579Z,14.70
2018-07-13T00:36:45.011Z,17.97
2018-07-13T00:39:14.085Z,16.03
2018-07-13T00:41:42.518Z,17.43
2018-07-13T00:44:10.634Z,16.10
2018-07-13T00:46:39.056Z,17.63
2018-07-13T00:49:07.490Z,16.60
2018-07-13T00:51:35.902Z,18.43
2018-07-13T00:54:04.335Z,21.07
2018-07-13T00:56:32.754Z,19.70
2018-07-13T00:59:01.209Z,20.40
2018-07-13T01:01:29.626Z,20.07
2018-07-13T01:03:58.072Z,23.97
2018-07-13T01:06:26.478Z,25.90
2018-07-13T01:08:54.896Z,23.47
2018-07-13T01:11:23.333Z,19.83
2018-07-13T01:13:51.745Z,23.43
2018-07-13T01:16:20.183Z,25.50
2018-07-13T01:18:48.622Z,21.93
2018-07-13T01:21:17.041Z,24.00
2018-07-13T01:23:45.477Z,21.83
2018-07-13T01:26:13.891Z,28.27
2018-07-13T01:28:42.293Z,22.97
2018-07-13T01:31:10.778Z,24.07
2018-07-13T01:33:39.201Z,24.40
2018-07-13T01:36:07.649Z,23.20
2018-07-13T01:38:36.059Z,26.97
2018-07-13T01:41:04.489Z,23.00
2018-07-13T01:43:32.907Z,25.07
2018-07-13T01:46:01.322Z,23.90
2018-07-13T01:48:29.733Z,26.40
2018-07-13T01:50:58.161Z,22.97
2018-07-13T01:53:26.592Z,22.63
2018-07-13T01:55:55.016Z,32.03
2018-07-13T01:58:23.441Z,24.60
2018-07-13T02:00:51.869Z,22.97
2018-07-13T02:03:20.290Z,24.00
2018-07-13T02:05:48.737Z,23.87
2018-07-13T02:08:17.153Z,23.17
2018-07-13T02:10:45.579Z,24.83
2018-07-13T02:13:14.000Z,23.73
2018-07-13T02:15:42.408Z,24.07
2018-07-13T02:18:10.824Z,22.83
2018-07-13T02:20:39.240Z,20.93
2018-07-13T02:23:07.656Z,20.10
2018-07-13T02:25:36.099Z,22.50
2018-07-13T02:28:04.546Z,22.60
2018-07-13T02:30:32.958Z,27.20
2018-07-13T02:33:01.387Z,22.77
2018-07-13T02:35:29.796Z,19.57
2018-07-13T02:37:58.238Z,21.57
2018-07-13T02:40:26.663Z,22.90
2018-07-13T02:42:55.159Z,24.20
2018-07-13T02:48:26.530Z,22.87
2018-07-13T02:50:54.954Z,18.93
2018-07-13T02:53:23.401Z,20.03
2018-07-13T02:55:51.804Z,21.63
2018-07-13T02:58:20.217Z,19.37
2018-07-13T03:00:48.577Z,19.43
2018-07-13T03:03:17.058Z,23.43
2018-07-13T03:05:45.510Z,21.60
2018-07-13T03:08:13.938Z,21.10
2018-07-13T03:10:42.351Z,21.90
2018-07-13T03:13:10.764Z,20.60
2018-07-13T03:15:39.173Z,20.93
2018-07-13T03:18:07.589Z,21.03
2018-07-13T03:20:36.026Z,21.47
2018-07-13T03:23:04.458Z,20.00
2018-07-13T03:25:32.860Z,21.63
2018-07-13T03:28:01.276Z,19.90
2018-07-13T03:30:29.724Z,18.77
2018-07-13T03:32:58.135Z,19.43
2018-07-13T03:35:26.552Z,17.53
2018-07-13T03:37:55.000Z,19.13
2018-07-13T03:40:23.440Z,17.43
2018-07-13T03:42:51.870Z,17.57
2018-07-13T03:51:18.970Z,18.80
2018-07-13T03:53:47.374Z,17.60
2018-07-13T03:56:15.821Z,15.93
2018-07-13T03:58:44.230Z,17.60
2018-07-13T04:01:12.662Z,17.17
2018-07-13T04:03:41.086Z,20.00
2018-07-13T04:06:09.528Z,20.30
2018-07-13T04:08:38.264Z,21.13
2018-07-13T04:11:06.731Z,22.03
2018-07-13T04:13:35.163Z,24.47
2018-07-13T04:16:03.597Z,20.20
2018-07-13T04:18:32.027Z,20.73
2018-07-13T04:21:00.427Z,20.40
2018-07-13T04:23:28.861Z,22.20
2018-07-13T04:25:57.269Z,21.30
2018-07-13T04:28:25.722Z,22.67
2018-07-13T04:30:54.157Z,20.10
2018-07-13T04:33:22.543Z,21.93
2018-07-13T04:35:50.955Z,22.93
2018-07-13T04:38:19.369Z,20.20
2018-07-13T04:40:47.822Z,17.87
2018-07-13T04:43:16.253Z,18.03
2018-07-13T04:45:44.683Z,18.70
2018-07-13T04:48:13.125Z,17.23
2018-07-13T04:50:42.314Z,18.77
2018-07-13T04:53:10.849Z,17.47
2018-07-13T04:55:39.307Z,17.63
2018-07-13T04:58:07.738Z,17.43
2018-07-13T05:00:36.242Z,20.43
2018-07-13T05:03:04.347Z,17.37
2018-07-13T05:05:32.760Z,18.07
2018-07-13T05:08:01.196Z,18.03
2018-07-13T05:10:29.641Z,20.60
2018-07-13T05:12:58.129Z,18.93
2018-07-13T05:15:26.580Z,18.43
2018-07-13T05:17:55.005Z,19.93
2018-07-13T05:20:23.425Z,17.30
2018-07-13T05:22:51.836Z,17.57
2018-07-13T05:25:20.290Z,18.70
2018-07-13T05:27:48.717Z,18.10
2018-07-13T05:30:17.146Z,18.57
2018-07-13T05:32:45.603Z,22.10
2018-07-13T05:35:14.030Z,24.90
2018-07-13T05:37:42.435Z,19.80
2018-07-13T05:40:10.853Z,18.97
2018-07-13T05:42:39.277Z,19.57
2018-07-13T05:45:07.691Z,18.37
2018-07-13T05:47:36.128Z,20.37
2018-07-13T05:50:05.478Z,17.00
2018-07-13T05:52:33.899Z,15.07
2018-07-13T05:55:02.318Z,20.10
2018-07-13T05:57:30.737Z,19.33
2018-07-13T05:59:59.155Z,20.20
2018-07-13T06:02:27.597Z,20.63
2018-07-13T06:04:56.059Z,17.10
2018-07-13T06:07:24.869Z,15.87
2018-07-13T06:09:53.315Z,19.53
2018-07-13T06:12:21.720Z,18.03
2018-07-13T06:14:50.162Z,18.37
2018-07-13T06:17:18.596Z,19.93
2018-07-13T06:19:47.055Z,19.13
2018-07-13T06:22:15.483Z,16.47
2018-07-13T06:24:43.946Z,20.30
2018-07-13T06:27:12.373Z,18.17
2018-07-13T06:29:40.796Z,17.97
2018-07-13T06:32:09.244Z,16.43
2018-07-13T06:34:37.663Z,15.17
2018-07-13T06:37:06.119Z,19.57
2018-07-13T06:39:34.546Z,19.10
2018-07-13T06:42:02.962Z,17.30
2018-07-13T06:44:31.372Z,13.53
2018-07-13T06:46:59.796Z,18.33
2018-07-13T06:49:28.269Z,14.93
2018-07-13T06:51:56.686Z,14.13
2018-07-13T06:54:25.128Z,12.63
2018-07-13T06:56:53.850Z,14.50
2018-07-13T06:59:22.836Z,16.53
2018-07-13T07:01:51.254Z,15.83
2018-07-13T07:04:26.114Z,16.27
2018-07-13T07:06:55.482Z,19.27
2018-07-13T07:09:25.580Z,15.40
2018-07-13T07:12:12.202Z,13.03
2018-07-13T07:14:40.663Z,18.90
2018-07-13T07:17:09.073Z,13.07
2018-07-13T07:19:37.479Z,14.77
2018-07-13T07:22:06.431Z,17.77
2018-07-13T07:24:35.018Z,13.00
2018-07-13T07:27:03.395Z,15.87
2018-07-13T07:32:07.140Z,15.47
2018-07-13T07:34:36.018Z,17.57
2018-07-13T07:37:04.433Z,18.87
2018-07-13T07:39:32.855Z,20.20
2018-07-13T07:42:00.973Z,17.13
2018-07-13T07:44:29.675Z,16.37
2018-07-13T07:46:58.087Z,11.97
2018-07-13T07:49:26.486Z,13.30
2018-07-13T07:51:54.948Z,13.20
2018-07-13T07:54:23.321Z,14.00
2018-07-13T07:56:51.717Z,14.57
2018-07-13T07:59:20.898Z,14.93
2018-07-13T08:01:49.339Z,13.70
2018-07-13T08:04:17.490Z,13.87
2018-07-13T08:06:46.263Z,15.30
2018-07-13T08:09:14.497Z,16.47
2018-07-13T08:11:43.034Z,15.20
2018-07-13T08:14:11.795Z,14.63
2018-07-13T08:16:39.937Z,15.63
2018-07-13T08:19:08.358Z,11.77
2018-07-13T08:21:41.168Z,13.43
2018-07-13T08:24:10.166Z,12.00
2018-07-13T08:26:41.800Z,15.97
2018-07-13T08:29:11.346Z,10.13
2018-07-13T08:31:39.796Z,10.13
2018-07-13T08:34:08.383Z,11.53
2018-07-13T08:36:36.803Z,9.57
2018-07-13T08:39:07.523Z,9.13
2018-07-13T08:41:35.934Z,9.90
2018-07-13T08:44:04.357Z,9.03
2018-07-13T08:46:32.807Z,9.93
2018-07-13T08:49:01.562Z,6.90
2018-07-13T08:51:30.029Z,5.07
2018-07-13T08:53:58.398Z,8.93
2018-07-13T08:56:27.836Z,9.13
2018-07-13T08:58:56.259Z,8.73
2018-07-13T09:01:24.753Z,11.03
2018-07-13T09:03:53.160Z,8.63
2018-07-13T09:06:21.592Z,8.03
2018-07-13T09:08:50.357Z,10.60
2018-07-13T09:11:18.757Z,8.50
2018-07-13T09:13:47.303Z,11.97
2018-07-13T09:16:15.742Z,6.00
2018-07-13T09:18:44.268Z,7.20
2018-07-13T09:21:12.657Z,6.77
2018-07-13T09:23:41.078Z,9.30
2018-07-13T09:26:09.492Z,8.07
2018-07-13T09:28:37.917Z,8.53
2018-07-13T09:31:06.344Z,9.77
2018-07-13T09:33:39.963Z,7.07
2018-07-13T09:36:08.395Z,9.87
2018-07-13T09:38:36.798Z,6.83
2018-07-13T09:41:05.201Z,12.67
2018-07-13T09:43:33.599Z,10.77
2018-07-13T09:46:02.013Z,9.63
2018-07-13T09:48:30.646Z,7.20
2018-07-13T09:50:59.516Z,7.80
2018-07-13T09:53:27.933Z,7.37
2018-07-13T09:55:57.112Z,8.80
2018-07-13T09:58:34.657Z,7.53
2018-07-13T10:01:08.386Z,7.90
2018-07-13T10:03:36.808Z,9.60
2018-07-13T10:06:05.233Z,6.40
2018-07-13T10:08:34.110Z,10.73
2018-07-13T10:11:02.532Z,9.93
2018-07-13T10:13:30.991Z,11.97
2018-07-13T10:15:59.366Z,8.53
2018-07-13T10:18:28.166Z,8.87
2018-07-13T10:20:58.144Z,9.20
2018-07-13T10:23:27.134Z,8.03
2018-07-13T10:25:59.842Z,6.90
2018-07-13T10:28:28.276Z,8.10
2018-07-13T10:30:57.356Z,10.10
2018-07-13T10:33:25.958Z,5.83
2018-07-13T10:35:54.843Z,8.13
2018-07-13T10:38:23.242Z,9.87
2018-07-13T10:40:51.883Z,8.43
2018-07-13T10:43:20.293Z,6.57
2018-07-13T10:45:48.813Z,4.97
2018-07-13T10:48:17.263Z,6.97
2018-07-13T10:50:45.752Z,4.97
2018-07-13T10:53:14.157Z,8.57
2018-07-13T10:55:42.549Z,5.27
2018-07-13T10:58:10.970Z,5.13
2018-07-13T11:00:39.720Z,6.67
2018-07-13T11:03:08.499Z,8.63
2018-07-13T11:05:37.124Z,10.60
2018-07-13T11:08:05.604Z,5.97
2018-07-13T11:10:34.039Z,4.83
2018-07-13T11:13:02.640Z,8.03
2018-07-13T11:15:31.051Z,8.33
2018-07-13T11:17:59.444Z,8.07
2018-07-13T11:20:27.903Z,7.57
2018-07-13T11:22:56.300Z,6.30
2018-07-13T11:25:24.728Z,8.17
2018-07-13T11:27:53.130Z,8.27
2018-07-13T11:30:21.803Z,6.80
2018-07-13T11:32:50.221Z,6.43
2018-07-13T11:36:47.834Z,8.07
2018-07-13T11:39:16.240Z,10.83
2018-07-13T11:41:44.815Z,8.23
2018-07-13T11:44:13.259Z,11.30
2018-07-13T11:46:41.907Z,7.20
2018-07-13T11:49:10.331Z,5.27
2018-07-13T11:51:38.721Z,4.97
2018-07-13T11:54:07.143Z,9.03
2018-07-13T11:56:36.221Z,7.73
2018-07-13T11:59:04.628Z,6.67
2018-07-13T12:01:33.051Z,5.97
2018-07-13T12:04:01.456Z,7.20
2018-07-13T12:06:29.867Z,7.70
2018-07-13T12:08:58.282Z,5.33
2018-07-13T12:11:26.823Z,8.67
2018-07-13T12:13:55.242Z,7.67
2018-07-13T12:16:23.669Z,6.63
2018-07-13T12:18:52.063Z,8.47
2018-07-13T12:21:20.476Z,4.33
2018-07-13T12:23:48.897Z,6.07
2018-07-13T12:26:17.636Z,5.97
2018-07-13T12:28:46.090Z,10.63
2018-07-13T12:31:14.536Z,7.03
2018-07-13T12:33:42.955Z,5.23
2018-07-13T12:36:11.365Z,6.50
2018-07-13T12:38:39.799Z,7.00
2018-07-13T12:41:08.186Z,6.43
2018-07-13T12:43:36.601Z,10.03
2018-07-13T12:46:05.190Z,7.53
2018-07-13T12:48:33.621Z,6.30
2018-07-13T12:51:02.025Z,8.93
2018-07-13T12:53:30.440Z,8.30
2018-07-13T12:55:58.831Z,6.17
2018-07-13T12:58:27.246Z,7.37
2018-07-13T13:00:55.349Z,6.83
2018-07-13T13:03:23.878Z,8.33
2018-07-13T13:05:52.414Z,9.97
2018-07-13T13:08:20.842Z,6.43
2018-07-13T13:10:49.240Z,6.70
2018-07-13T13:13:17.628Z,5.63
2018-07-13T13:15:46.045Z,6.73
2018-07-13T13:18:14.834Z,6.87
2018-07-13T13:20:43.244Z,5.63
2018-07-13T13:23:11.644Z,8.20
2018-07-13T13:25:40.048Z,6.93
2018-07-13T13:28:08.446Z,5.50
2018-07-13T13:30:36.885Z,6.97
2018-07-13T13:33:05.352Z,6.50
2018-07-13T13:35:33.816Z,7.20
2018-07-13T13:38:02.205Z,4.83
2018-07-13T13:40:30.900Z,9.53
2018-07-13T13:42:59.333Z,4.57
2018-07-13T13:45:28.059Z,6.27
2018-07-13T13:47:56.475Z,6.97
2018-07-13T13:50:24.883Z,6.80
2018-07-13T13:52:53.351Z,6.87
2018-07-13T13:55:21.828Z,7.43
2018-07-13T13:57:50.233Z,4.63
2018-07-13T14:00:18.724Z,5.83
2018-07-13T14:02:47.128Z,6.10
2018-07-13T14:05:15.579Z,4.50
2018-07-13T14:07:43.955Z,7.60
2018-07-13T14:10:12.391Z,6.40
2018-07-13T14:12:41.166Z,4.77
2018-07-13T14:15:09.751Z,6.80
2018-07-13T14:17:38.627Z,4.60
2018-07-13T14:20:07.036Z,7.80
2018-07-13T14:22:35.442Z,5.27
2018-07-13T14:25:03.869Z,7.70
2018-07-13T14:27:32.288Z,9.47
2018-07-13T14:30:00.686Z,8.50
2018-07-13T14:32:29.110Z,8.27
2018-07-13T14:34:57.502Z,8.63
2018-07-13T14:37:26.055Z,7.57
2018-07-13T14:39:54.536Z,7.53
2018-07-13T14:42:22.987Z,8.07
2018-07-13T14:44:51.384Z,6.37
2018-07-13T14:47:20.100Z,5.27
2018-07-13T14:49:48.522Z,9.80
2018-07-13T14:52:16.939Z,7.27
2018-07-13T14:54:45.499Z,5.30
2018-07-13T14:57:14.087Z,6.80
2018-07-13T14:59:42.565Z,4.30
2018-07-13T15:02:11.040Z,8.53
2018-07-13T15:04:39.519Z,6.53
2018-07-13T15:07:07.968Z,9.33
2018-07-13T15:09:36.421Z,5.27
2018-07-13T15:12:04.894Z,6.30
2018-07-13T15:14:33.314Z,6.33
2018-07-13T15:17:01.872Z,5.50
2018-07-13T15:19:30.299Z,6.20
2018-07-13T15:21:58.713Z,7.17
2018-07-13T15:24:27.184Z,5.27
2018-07-13T15:26:55.597Z,4.43
2018-07-13T15:29:24.030Z,6.00
2018-07-13T15:31:52.443Z,4.43
2018-07-13T15:34:20.847Z,6.60
2018-07-13T15:36:49.279Z,5.47
2018-07-13T15:39:17.675Z,3.90
2018-07-13T15:41:46.123Z,4.23
2018-07-13T15:44:14.533Z,4.83
2018-07-13T15:46:42.949Z,6.97
2018-07-13T15:49:11.364Z,6.73
2018-07-13T15:51:39.771Z,5.70
2018-07-13T15:54:07.938Z,5.37
2018-07-13T15:56:36.363Z,4.53
2018-07-13T15:59:04.785Z,5.73
2018-07-13T16:01:33.240Z,5.67
2018-07-13T16:04:01.685Z,5.40
2018-07-13T16:06:30.096Z,5.47
2018-07-13T16:08:58.499Z,6.53
2018-07-13T16:11:26.927Z,5.83
2018-07-13T16:13:55.347Z,6.00
2018-07-13T16:16:23.781Z,5.93
2018-07-13T16:18:52.191Z,5.93
2018-07-13T16:21:20.606Z,6.30
2018-07-13T16:23:49.138Z,6.93
2018-07-13T16:26:17.555Z,4.97
2018-07-13T16:28:46.045Z,6.20
2018-07-13T16:31:14.542Z,4.50
2018-07-13T16:33:42.934Z,4.67
2018-07-13T16:36:11.098Z,4.73
2018-07-13T16:38:39.624Z,8.27
2018-07-13T16:41:08.032Z,5.13
2018-07-13T16:43:36.450Z,6.03
2018-07-13T16:46:04.843Z,5.93
2018-07-13T16:48:33.232Z,3.67
2018-07-13T16:51:01.641Z,5.30
2018-07-13T16:53:30.046Z,4.80
2018-07-13T16:55:58.431Z,6.67
2018-07-13T16:58:26.823Z,6.93
2018-07-13T17:00:55.230Z,6.77
2018-07-13T17:03:23.672Z,8.53
2018-07-13T17:05:52.929Z,5.37
2018-07-13T17:08:21.687Z,5.83
2018-07-13T17:10:50.320Z,4.97
2018-07-13T17:13:18.757Z,4.97
2018-07-13T17:15:47.280Z,5.93
2018-07-13T17:18:15.714Z,3.27
2018-07-13T17:20:44.107Z,5.73
2018-07-13T17:23:12.863Z,4.43
2018-07-13T17:25:41.703Z,6.17
2018-07-13T17:28:10.204Z,6.60
2018-07-13T17:30:38.672Z,7.67
2018-07-13T17:33:07.123Z,5.57
2018-07-13T17:35:35.550Z,5.73
2018-07-13T17:38:04.112Z,4.87
2018-07-13T17:40:32.525Z,4.67
2018-07-13T17:43:01.022Z,6.13
2018-07-13T17:45:29.367Z,5.73
2018-07-13T17:47:58.199Z,6.00
2018-07-13T17:50:26.596Z,7.00
2018-07-13T17:52:55.013Z,8.27
2018-07-13T17:55:23.971Z,4.77
2018-07-13T17:57:52.434Z,6.47
2018-07-13T18:00:21.034Z,3.97
2018-07-13T18:02:49.445Z,3.93
2018-07-13T18:05:17.848Z,4.62
2018-07-13T18:07:46.244Z,7.83
2018-07-13T18:10:14.709Z,4.60
2018-07-13T18:12:43.185Z,4.63
2018-07-13T18:15:11.544Z,5.67
2018-07-13T18:17:39.982Z,5.60
2018-07-13T18:20:08.471Z,4.63
2018-07-13T18:22:37.181Z,4.80
2018-07-13T18:25:05.905Z,3.10
2018-07-13T18:27:35.430Z,4.53
2018-07-13T18:30:04.905Z,5.97
2018-07-13T18:32:33.757Z,4.33
2018-07-13T18:35:02.506Z,5.60
2018-07-13T18:37:31.292Z,6.00
2018-07-13T18:39:59.939Z,5.57
2018-07-13T18:42:28.351Z,3.80
2018-07-13T18:44:56.791Z,5.47
2018-07-13T18:47:25.201Z,3.50
2018-07-13T18:49:53.611Z,6.77
2018-07-13T18:52:22.143Z,5.93
2018-07-13T18:54:51.141Z,4.93
2018-07-13T18:57:19.555Z,4.67
2018-07-13T18:59:47.964Z,6.70
2018-07-13T19:02:16.356Z,6.30
2018-07-13T19:04:44.752Z,4.83
2018-07-13T19:07:13.174Z,5.17
2018-07-13T19:09:41.571Z,7.23
2018-07-13T19:12:09.964Z,8.30
2018-07-13T19:14:38.692Z,4.80
2018-07-13T19:17:07.091Z,6.70
2018-07-13T19:19:35.498Z,7.17
2018-07-13T19:22:04.211Z,6.17
2018-07-13T19:24:32.640Z,8.47
2018-07-13T19:27:01.463Z,6.67
2018-07-13T19:29:29.907Z,7.00
2018-07-13T19:31:58.335Z,6.13
2018-07-13T19:34:26.730Z,7.07
2018-07-13T19:36:55.111Z,9.67
2018-07-13T19:39:23.906Z,7.07
2018-07-13T19:41:52.299Z,6.37
2018-07-13T19:44:20.965Z,7.87
2018-07-13T19:46:49.505Z,8.77
2018-07-13T19:49:17.895Z,7.37
2018-07-13T19:51:46.311Z,8.07
2018-07-13T19:54:14.736Z,8.57
2018-07-13T19:56:43.127Z,7.97
2018-07-13T19:59:11.537Z,10.57
2018-07-13T20:01:40.005Z,10.20
2018-07-13T20:04:08.428Z,9.53
2018-07-13T20:06:36.837Z,8.43
2018-07-13T20:09:06.560Z,8.50
2018-07-13T20:11:34.946Z,9.10
2018-07-13T20:14:03.055Z,8.87
2018-07-13T20:16:31.446Z,11.33
2018-07-13T20:18:59.848Z,10.70
2018-07-13T20:21:28.256Z,9.20
2018-07-13T20:23:57.639Z,10.23
2018-07-13T20:26:26.052Z,9.23
2018-07-13T20:28:54.478Z,9.23
2018-07-13T20:31:23.003Z,12.07
2018-07-13T20:33:51.419Z,10.67
2018-07-13T20:36:19.821Z,9.63
2018-07-13T20:38:48.221Z,11.80
2018-07-13T20:41:16.636Z,12.03
2018-07-13T20:43:45.059Z,10.63
2018-07-13T20:46:13.847Z,10.33
2018-07-13T20:48:42.267Z,11.07
2018-07-13T20:51:10.675Z,11.57
2018-07-13T20:53:39.112Z,14.27
2018-07-13T20:56:07.509Z,12.83
2018-07-13T20:58:35.913Z,11.03
2018-07-13T21:01:04.359Z,11.33
2018-07-13T21:03:32.790Z,11.03
2018-07-13T21:06:01.190Z,10.77
2018-07-13T21:08:29.620Z,11.70
2018-07-13T21:10:58.026Z,11.83
2018-07-13T21:13:26.436Z,11.80
2018-07-13T21:15:55.674Z,12.83
2018-07-13T21:18:24.086Z,10.13
2018-07-13T21:20:52.528Z,10.80
2018-07-13T21:23:20.958Z,10.80
2018-07-13T21:25:49.414Z,10.20
2018-07-13T21:28:17.828Z,10.60
2018-07-13T21:30:46.243Z,10.17
2018-07-13T21:33:14.663Z,10.37
2018-07-13T21:35:43.174Z,15.87
2018-07-13T21:38:11.587Z,13.43
2018-07-13T21:40:39.979Z,12.17
2018-07-13T21:43:08.628Z,11.57
2018-07-13T21:45:37.051Z,11.63
2018-07-13T21:48:05.543Z,11.73
2018-07-13T21:50:33.955Z,13.27
2018-07-13T21:53:02.367Z,12.40
2018-07-13T21:55:30.765Z,10.83
2018-07-13T21:57:59.203Z,10.70
2018-07-13T22:00:27.621Z,11.90
2018-07-13T22:02:56.023Z,12.00
2018-07-13T22:05:24.431Z,12.83
2018-07-13T22:07:52.840Z,11.70
2018-07-13T22:10:21.247Z,12.63
2018-07-13T22:12:49.657Z,14.53
2018-07-13T22:15:18.050Z,13.67
2018-07-13T22:17:46.513Z,13.93
2018-07-13T22:20:14.915Z,13.43
2018-07-13T22:22:43.338Z,14.77
2018-07-13T22:25:11.823Z,12.90
2018-07-13T22:27:40.237Z,14.07
2018-07-13T22:30:08.635Z,15.43
2018-07-13T22:32:37.051Z,13.40
2018-07-13T22:35:06.016Z,13.57
2018-07-13T22:37:34.425Z,14.03
2018-07-13T22:40:02.844Z,14.40
2018-07-13T22:42:31.240Z,15.13
2018-07-13T22:44:59.631Z,15.27
2018-07-13T22:47:28.043Z,14.00
2018-07-13T22:49:56.468Z,13.30
2018-07-13T22:52:24.867Z,12.37
2018-07-13T22:54:53.286Z,12.23
2018-07-13T22:57:22.184Z,12.00
2018-07-13T22:59:50.416Z,12.83
2018-07-13T23:02:19.423Z,13.97
2018-07-13T23:04:47.878Z,14.10
2018-07-13T23:07:16.394Z,13.37
2018-07-13T23:09:45.251Z,14.57
2018-07-13T23:12:14.115Z,12.77
2018-07-13T23:14:42.491Z,14.03
2018-07-13T23:17:11.203Z,14.87
2018-07-13T23:19:39.903Z,16.40
2018-07-13T23:22:09.167Z,14.07
2018-07-13T23:24:38.919Z,15.70
2018-07-13T23:27:07.353Z,14.17
2018-07-13T23:29:35.751Z,13.67
2018-07-13T23:32:04.449Z,12.80
2018-07-13T23:34:32.879Z,13.20
2018-07-13T23:37:01.299Z,14.07
2018-07-13T23:39:29.694Z,14.73
2018-07-13T23:41:58.130Z,15.27
2018-07-13T23:44:26.575Z,17.13
2018-07-13T23:46:55.018Z,15.90
2018-07-13T23:49:23.555Z,16.37
2018-07-13T23:51:51.957Z,15.13
2018-07-13T23:54:20.347Z,13.20
2018-07-13T23:56:48.736Z,13.80
2018-07-13T23:59:17.147Z,14.60
